Terminal Aerodrome Forecast
Issued by NWS

Home | Current Version | Previous Version | Text Only | Print | Product List | Glossary On
Versions: 1 2 3 4 5 6 7 8 9 10 11 12 13 14 15 16 17 18 19 20 21 22 23 24
822
FTAK31 PAFA 060534
TAFABT
TAF
PABT 060534Z 0606/0706 35005KT P6SM BKN120
     FM061200 36006KT P6SM BKN050 OVC100
     FM061500 01008KT 4SM -SN BR BKN035 BKN060
     FM070000 35005KT P6SM SCT050 OVC100=

USA.gov is the U.S. government's official web portal to all federal, state and local government web resources and services.